This is the latest recevied weather packets stored in our database for station/object DJ5CM-10. If no packets are shown the sender has not sent any weather packets the latest 1 day(s).
| Time | Temp. | Humidity | Pressure | Rain* | Wind** | Luminosity | Snow |
|---|---|---|---|---|---|---|---|
| 1778123286 | 6.11° C | 68% | 1012.8 hPa | - | - | - | - |
| 1778121485 | 6.67° C | 67% | 1012.7 hPa | - | - | - | - |
| 1778119685 | 7.22° C | 67% | 1012.4 hPa | - | - | - | - |
| 1778118785 | 7.22° C | 66% | 1012.4 hPa | - | - | - | - |
| 1778117885 | 7.22° C | 66% | 1012.3 hPa | - | - | - | - |
| 1778116985 | 7.22° C | 66% | 1012.3 hPa | - | - | - | - |
| 1778116085 | 7.78° C | 65% | 1012.1 hPa | - | - | - | - |
| 1778115185 | 7.78° C | 65% | 1012.2 hPa | - | - | - | - |
| 1778114285 | 7.78° C | 64% | 1012.1 hPa | - | - | - | - |
| 1778107084 | 9.44° C | 60% | 1011.6 hPa | - | - | - | - |
| 1778106184 | 10° C | 60% | 1011.6 hPa | - | - | - | - |
| 1778099883 | 11.67° C | 55% | 1011 hPa | - | - | - | - |
| 1778098983 | 11.67° C | 54% | 1010.8 hPa | - | - | - | - |
| 1778098083 | 12.22° C | 53% | 1010.8 hPa | - | - | - | - |
| 1778097183 | 12.22° C | 52% | 1010.7 hPa | - | - | - | - |
| 1778091782 | 14.44° C | 46% | 1009.9 hPa | - | - | - | - |
| 1778089982 | 15.56° C | 44% | 1009.4 hPa | - | - | - | - |
| 1778089082 | 15.56° C | 43% | 1009.3 hPa | - | - | - | - |
| 1778084581 | 17.78° C | 38% | 1009 hPa | - | - | - | - |
| 1778083681 | 18.33° C | 37% | 1009.1 hPa | - | - | - | - |
| 1778081881 | 19.44° C | 37% | 1009.1 hPa | - | - | - | - |
| 1778080981 | 20° C | 38% | 1009.1 hPa | - | - | - | - |
| 1778072879 | 18.33° C | 51% | 1008.9 hPa | - | - | - | - |
| 1778071979 | 17.22° C | 52% | 1008.8 hPa | - | - | - | - |
| 1778065678 | 15.56° C | 60% | 1008.9 hPa | - | - | - | - |
* Rain since midnight (hover to see other rain measurements)
** Current wind speed in m/s (hover to see current wind gust speed)